createdAt,value
2023-01-29T00:00:11.258Z,64.71
2023-01-29T00:03:37.986Z,64.14
2023-01-29T00:06:41.811Z,64.61
2023-01-29T00:09:46.817Z,65.24
2023-01-29T00:12:52.136Z,64.62
2023-01-29T00:15:58.167Z,63.75
2023-01-29T00:19:02.589Z,63.28
2023-01-29T00:22:06.471Z,63.67
2023-01-29T00:25:11.588Z,63.75
2023-01-29T00:28:19.596Z,63.69
2023-01-29T00:31:27.037Z,64.15
2023-01-29T00:34:31.437Z,64.58
2023-01-29T00:37:34.895Z,63.76
2023-01-29T00:40:53.658Z,62.92
2023-01-29T00:44:15.129Z,64.11
2023-01-29T00:47:33.475Z,67.25
2023-01-29T00:50:37.232Z,66.12
2023-01-29T00:53:43.001Z,65.78
2023-01-29T00:56:46.575Z,65.23
2023-01-29T00:59:51.383Z,65.00
2023-01-29T01:03:08.263Z,65.00
2023-01-29T01:06:13.503Z,65.18
2023-01-29T01:09:35.535Z,65.13
2023-01-29T01:12:39.572Z,64.55
2023-01-29T01:15:43.064Z,63.73
2023-01-29T01:18:48.442Z,64.17
2023-01-29T01:21:52.002Z,64.31
2023-01-29T01:24:55.717Z,65.12
2023-01-29T01:28:03.445Z,65.23
2023-01-29T01:31:12.072Z,65.16
2023-01-29T01:34:17.212Z,64.94
2023-01-29T01:37:21.055Z,64.35
2023-01-29T01:40:25.944Z,64.49
2023-01-29T01:43:29.913Z,65.49
2023-01-29T01:46:38.868Z,64.58
2023-01-29T01:49:44.671Z,65.48
2023-01-29T01:52:51.683Z,64.57
2023-01-29T01:56:01.707Z,64.21
2023-01-29T01:59:09.766Z,63.72
2023-01-29T02:02:32.411Z,63.13
2023-01-29T02:05:55.897Z,63.84
2023-01-29T02:09:21.618Z,63.52
2023-01-29T02:12:25.959Z,62.74
2023-01-29T02:15:29.679Z,62.69
2023-01-29T02:18:37.989Z,62.14
2023-01-29T02:22:11.594Z,62.75
2023-01-29T02:25:49.028Z,62.87
2023-01-29T02:29:21.572Z,62.95
2023-01-29T02:32:34.291Z,63.07
2023-01-29T02:35:44.984Z,62.69
2023-01-29T02:39:01.128Z,62.25
2023-01-29T02:42:18.142Z,61.89
2023-01-29T02:45:33.981Z,62.17
2023-01-29T02:48:46.029Z,62.04
2023-01-29T02:51:57.000Z,61.40
2023-01-29T02:55:09.630Z,61.30
2023-01-29T02:58:23.528Z,61.32
2023-01-29T03:01:34.263Z,61.38
2023-01-29T03:04:46.614Z,61.82
2023-01-29T03:07:58.683Z,61.90
2023-01-29T03:11:13.875Z,62.42
2023-01-29T03:14:47.769Z,61.41
2023-01-29T03:17:57.995Z,62.63
2023-01-29T03:21:26.559Z,62.33
2023-01-29T03:24:56.123Z,61.83
2023-01-29T03:28:22.518Z,61.41
2023-01-29T03:31:45.789Z,61.50
2023-01-29T03:34:59.028Z,61.21
2023-01-29T03:38:05.236Z,61.71
2023-01-29T03:41:17.010Z,61.54
2023-01-29T03:44:32.302Z,61.29
2023-01-29T03:47:47.172Z,61.70
2023-01-29T03:50:59.045Z,61.79
2023-01-29T03:54:11.959Z,62.12
2023-01-29T03:57:21.323Z,61.17
2023-01-29T04:00:30.923Z,61.15
2023-01-29T04:03:45.052Z,61.01
2023-01-29T04:06:54.188Z,62.01
2023-01-29T04:10:02.203Z,61.62
2023-01-29T04:13:13.186Z,62.04
2023-01-29T04:16:24.065Z,62.30
2023-01-29T04:19:38.254Z,62.35
2023-01-29T04:22:47.219Z,63.82
2023-01-29T04:25:59.503Z,64.29
2023-01-29T04:29:22.849Z,63.84
2023-01-29T04:32:38.106Z,65.23
2023-01-29T04:35:55.495Z,66.02
2023-01-29T04:39:12.083Z,64.79
2023-01-29T04:42:26.043Z,63.77
2023-01-29T04:45:40.501Z,63.92
2023-01-29T04:48:59.753Z,63.48
2023-01-29T04:52:10.765Z,63.20
2023-01-29T04:55:21.130Z,63.85
2023-01-29T04:58:34.081Z,63.89
2023-01-29T05:01:40.079Z,64.41
2023-01-29T05:04:47.247Z,64.71
2023-01-29T05:07:51.818Z,64.66
2023-01-29T05:10:59.956Z,64.09
2023-01-29T05:14:08.176Z,64.07
2023-01-29T05:17:17.148Z,63.35
2023-01-29T05:20:21.405Z,63.33
2023-01-29T05:23:25.461Z,63.68
2023-01-29T05:26:47.730Z,63.91
2023-01-29T05:29:51.441Z,63.65
2023-01-29T05:32:54.928Z,62.75
2023-01-29T05:36:02.299Z,63.73
2023-01-29T05:39:05.913Z,63.49
2023-01-29T05:42:11.285Z,62.75
2023-01-29T05:45:14.859Z,63.19
2023-01-29T05:48:18.800Z,63.78
2023-01-29T05:51:22.322Z,63.82
2023-01-29T05:54:26.061Z,63.54
2023-01-29T05:57:30.965Z,62.91
2023-01-29T06:00:34.864Z,63.11
2023-01-29T06:03:38.349Z,62.34
2023-01-29T06:06:42.090Z,62.55
2023-01-29T06:09:45.595Z,62.60
2023-01-29T06:12:51.151Z,62.03
2023-01-29T06:15:54.708Z,61.69
2023-01-29T06:18:58.691Z,61.56
2023-01-29T06:22:02.219Z,61.29
2023-01-29T06:25:08.670Z,61.71
2023-01-29T06:28:13.519Z,62.02
2023-01-29T06:31:37.749Z,61.48
2023-01-29T06:34:41.759Z,61.86
2023-01-29T06:37:45.837Z,61.13
2023-01-29T06:40:49.219Z,61.30
2023-01-29T06:43:54.529Z,61.41
2023-01-29T06:46:58.052Z,61.03
2023-01-29T06:50:02.233Z,61.44
2023-01-29T06:53:05.728Z,61.31
2023-01-29T06:56:10.105Z,62.54
2023-01-29T06:59:15.228Z,61.99
2023-01-29T07:02:19.297Z,61.64
2023-01-29T07:05:22.875Z,62.70
2023-01-29T07:08:26.653Z,63.20
2023-01-29T07:11:30.259Z,62.64
2023-01-29T07:14:37.175Z,62.94
2023-01-29T07:17:41.310Z,62.13
2023-01-29T07:20:45.107Z,62.44
2023-01-29T07:23:49.990Z,61.90
2023-01-29T07:26:54.110Z,61.43
2023-01-29T07:29:58.867Z,62.17
2023-01-29T07:33:07.106Z,61.90
2023-01-29T07:36:11.450Z,61.73
2023-01-29T07:39:16.331Z,61.75
2023-01-29T07:42:19.823Z,62.73
2023-01-29T07:45:25.299Z,62.55
2023-01-29T07:48:28.840Z,62.07
2023-01-29T07:51:33.377Z,62.23
2023-01-29T07:54:36.859Z,62.53
2023-01-29T07:57:40.743Z,62.91
2023-01-29T08:00:45.936Z,63.96
2023-01-29T08:03:51.245Z,64.23
2023-01-29T08:06:54.798Z,63.20
2023-01-29T08:10:00.764Z,63.33
2023-01-29T08:13:05.489Z,62.66
2023-01-29T08:16:29.464Z,62.77
2023-01-29T08:19:33.377Z,62.52
2023-01-29T08:22:37.318Z,63.09
2023-01-29T08:25:41.273Z,63.60
2023-01-29T08:28:45.299Z,63.25
2023-01-29T08:31:50.404Z,63.31
2023-01-29T08:34:54.208Z,64.13
2023-01-29T08:37:59.746Z,64.57
2023-01-29T08:41:06.535Z,64.50
2023-01-29T08:44:10.350Z,64.46
2023-01-29T08:47:16.395Z,65.79
2023-01-29T08:50:20.374Z,65.70
2023-01-29T08:53:25.049Z,65.62
2023-01-29T08:56:28.643Z,66.95
2023-01-29T08:59:32.642Z,66.95
2023-01-29T09:02:37.990Z,66.92
2023-01-29T09:05:43.887Z,66.66
2023-01-29T09:08:48.014Z,66.52
2023-01-29T09:11:51.972Z,67.05
2023-01-29T09:14:56.969Z,67.12
2023-01-29T09:18:06.462Z,66.54
2023-01-29T09:21:10.463Z,66.39
2023-01-29T09:24:14.337Z,66.02
2023-01-29T09:27:18.043Z,65.58
2023-01-29T09:30:22.305Z,65.36
2023-01-29T09:33:27.279Z,65.39
2023-01-29T09:36:30.978Z,66.09
2023-01-29T09:39:36.057Z,64.99
2023-01-29T09:42:48.692Z,64.81
2023-01-29T09:45:57.495Z,65.58
2023-01-29T09:49:08.812Z,66.37
2023-01-29T09:52:18.663Z,65.25
2023-01-29T09:55:26.350Z,65.33
2023-01-29T09:58:33.636Z,64.16
2023-01-29T10:01:45.772Z,64.49
2023-01-29T10:05:23.537Z,63.47
2023-01-29T10:08:48.770Z,63.91
2023-01-29T10:12:06.604Z,64.60
2023-01-29T10:15:24.972Z,64.59
2023-01-29T10:18:55.181Z,65.70
2023-01-29T10:22:38.906Z,67.66
2023-01-29T10:25:45.725Z,67.97
2023-01-29T10:28:52.908Z,67.87
2023-01-29T10:32:05.347Z,68.33
2023-01-29T10:35:22.553Z,68.69
2023-01-29T10:38:36.429Z,68.23
2023-01-29T10:41:57.134Z,67.68
2023-01-29T10:45:20.175Z,67.59
2023-01-29T10:48:41.919Z,68.91
2023-01-29T10:52:04.950Z,68.52
2023-01-29T10:55:25.380Z,67.92
2023-01-29T10:58:35.168Z,69.11
2023-01-29T11:01:39.409Z,67.23
2023-01-29T11:04:43.016Z,67.46
2023-01-29T11:07:47.774Z,67.25
2023-01-29T11:11:02.568Z,66.09
2023-01-29T11:14:11.312Z,66.71
2023-01-29T11:17:19.080Z,66.29
2023-01-29T11:20:28.839Z,67.64
2023-01-29T11:23:34.394Z,67.83
2023-01-29T11:26:42.360Z,67.85
2023-01-29T11:29:48.262Z,67.99
2023-01-29T11:32:59.218Z,68.25
2023-01-29T11:36:22.839Z,68.09
2023-01-29T11:39:28.063Z,68.40
2023-01-29T11:42:34.243Z,68.52
2023-01-29T11:45:41.003Z,67.43
2023-01-29T11:48:48.026Z,67.99
2023-01-29T11:51:56.462Z,67.41
2023-01-29T11:55:02.287Z,67.31
2023-01-29T11:58:14.859Z,66.22
2023-01-29T12:01:25.941Z,66.89
2023-01-29T12:04:31.440Z,65.52
2023-01-29T12:07:36.187Z,66.10
2023-01-29T12:10:42.479Z,66.84
2023-01-29T12:13:55.759Z,65.54
2023-01-29T12:17:07.089Z,65.05
2023-01-29T12:20:19.027Z,64.20
2023-01-29T12:23:32.888Z,64.96
2023-01-29T12:26:42.430Z,64.70
2023-01-29T12:29:53.983Z,64.28
2023-01-29T12:33:03.683Z,65.62
2023-01-29T12:36:14.950Z,65.42
2023-01-29T12:39:18.973Z,65.47
2023-01-29T12:42:24.664Z,65.15
2023-01-29T12:45:32.438Z,65.78
2023-01-29T12:48:41.292Z,65.96
2023-01-29T12:51:54.512Z,65.73
2023-01-29T12:55:04.932Z,65.99
2023-01-29T12:58:17.068Z,66.13
2023-01-29T13:01:31.242Z,65.79
2023-01-29T13:04:41.443Z,67.29
2023-01-29T13:07:50.832Z,67.96
2023-01-29T13:10:56.461Z,68.77
2023-01-29T13:14:03.293Z,68.53
2023-01-29T13:17:12.328Z,67.89
2023-01-29T13:20:22.259Z,67.88
2023-01-29T13:23:33.559Z,67.62
2023-01-29T13:26:38.274Z,67.17
2023-01-29T13:29:45.172Z,67.26
2023-01-29T13:32:54.393Z,66.27
2023-01-29T13:36:00.981Z,66.29
2023-01-29T13:39:08.624Z,66.50
2023-01-29T13:42:18.972Z,66.58
2023-01-29T13:45:25.978Z,65.86
2023-01-29T13:48:36.900Z,65.92
2023-01-29T13:51:40.887Z,66.23
2023-01-29T13:54:54.783Z,66.94
2023-01-29T13:57:59.819Z,66.96
2023-01-29T14:01:03.764Z,68.26
2023-01-29T14:04:25.889Z,66.91
2023-01-29T14:07:51.393Z,67.82
2023-01-29T14:11:28.864Z,68.56
2023-01-29T14:14:53.074Z,67.14
2023-01-29T14:18:06.363Z,67.05
2023-01-29T14:21:24.213Z,67.17
2023-01-29T14:24:32.262Z,66.37
2023-01-29T14:27:38.391Z,66.83
2023-01-29T14:30:48.872Z,66.04
2023-01-29T14:33:54.411Z,65.54
2023-01-29T14:37:03.963Z,65.14
2023-01-29T14:40:21.520Z,64.73
2023-01-29T14:43:25.538Z,64.80
2023-01-29T14:46:45.832Z,64.18
2023-01-29T14:49:51.285Z,64.27
2023-01-29T14:53:03.001Z,64.42
2023-01-29T14:56:15.611Z,63.79
2023-01-29T14:59:23.343Z,63.64
2023-01-29T15:02:35.224Z,62.38
2023-01-29T15:05:40.880Z,63.60
2023-01-29T15:08:52.097Z,64.55
2023-01-29T15:12:04.715Z,63.71
2023-01-29T15:15:17.698Z,63.99
2023-01-29T15:18:32.641Z,63.35
2023-01-29T15:21:37.499Z,63.57
2023-01-29T15:24:44.088Z,64.20
2023-01-29T15:27:48.560Z,63.73
2023-01-29T15:30:57.066Z,63.35
2023-01-29T15:34:07.797Z,62.86
2023-01-29T15:37:26.703Z,62.61
2023-01-29T15:40:32.202Z,62.71
2023-01-29T15:43:37.951Z,62.83
2023-01-29T15:46:44.833Z,62.21
2023-01-29T15:49:49.299Z,62.11
2023-01-29T15:52:55.362Z,62.14
2023-01-29T15:56:00.362Z,62.30
2023-01-29T15:59:09.669Z,61.96
2023-01-29T16:02:22.870Z,61.42
2023-01-29T16:05:29.730Z,61.57
2023-01-29T16:08:35.849Z,61.10
2023-01-29T16:11:43.287Z,61.21
2023-01-29T16:14:47.924Z,61.90
2023-01-29T16:17:52.082Z,61.38
2023-01-29T16:20:57.521Z,61.02
2023-01-29T16:24:03.804Z,61.06
2023-01-29T16:27:15.050Z,60.53
2023-01-29T16:30:20.742Z,60.90
2023-01-29T16:33:33.518Z,61.91
2023-01-29T16:36:37.619Z,60.87
2023-01-29T16:39:47.908Z,60.09
2023-01-29T16:43:31.349Z,60.31
2023-01-29T16:46:38.895Z,60.46
2023-01-29T16:49:51.675Z,60.02
2023-01-29T16:53:00.030Z,59.87
2023-01-29T16:56:07.139Z,59.86
2023-01-29T16:59:21.130Z,59.82
2023-01-29T17:02:28.618Z,59.03
2023-01-29T17:05:36.007Z,58.96
2023-01-29T17:08:42.884Z,58.77
2023-01-29T17:11:46.559Z,58.68
2023-01-29T17:14:57.270Z,58.18
2023-01-29T17:18:00.921Z,58.44
2023-01-29T17:21:07.634Z,58.87
2023-01-29T17:24:11.265Z,58.59
2023-01-29T17:27:30.499Z,58.37
2023-01-29T17:30:37.898Z,58.09
2023-01-29T17:33:44.075Z,58.14
2023-01-29T17:36:48.893Z,57.75
2023-01-29T17:39:53.112Z,57.92
2023-01-29T17:42:56.768Z,58.21
2023-01-29T17:46:02.263Z,57.98
2023-01-29T17:49:11.442Z,58.56
2023-01-29T17:52:15.984Z,58.24
2023-01-29T17:55:19.960Z,57.64
2023-01-29T17:58:26.561Z,58.08
2023-01-29T18:01:31.518Z,58.66
2023-01-29T18:04:37.237Z,58.68
2023-01-29T18:07:44.237Z,58.26
2023-01-29T18:10:48.453Z,57.76
2023-01-29T18:13:51.928Z,57.74
2023-01-29T18:16:58.217Z,58.32
2023-01-29T18:20:02.483Z,58.92
2023-01-29T18:23:07.630Z,59.14
2023-01-29T18:26:12.878Z,58.23
2023-01-29T18:29:16.962Z,58.33
2023-01-29T18:32:22.028Z,58.18
2023-01-29T18:35:26.208Z,58.37
2023-01-29T18:38:29.776Z,58.82
2023-01-29T18:41:34.675Z,58.42
2023-01-29T18:44:38.318Z,58.91
2023-01-29T18:47:43.875Z,58.43
2023-01-29T18:50:48.018Z,58.84
2023-01-29T18:53:52.298Z,59.25
2023-01-29T18:57:06.318Z,58.86
2023-01-29T19:00:18.463Z,59.27
2023-01-29T19:03:24.320Z,59.08
2023-01-29T19:06:31.440Z,58.66
2023-01-29T19:09:35.183Z,59.60
2023-01-29T19:12:40.515Z,60.37
2023-01-29T19:15:44.942Z,59.54
2023-01-29T19:18:50.425Z,58.90
2023-01-29T19:21:54.307Z,58.73
2023-01-29T19:24:58.417Z,59.01
2023-01-29T19:28:02.535Z,58.50
2023-01-29T19:31:06.582Z,58.07
2023-01-29T19:34:11.448Z,58.16
2023-01-29T19:37:15.187Z,58.18
2023-01-29T19:40:21.777Z,57.88
2023-01-29T19:43:25.516Z,58.03
2023-01-29T19:46:30.246Z,57.58
2023-01-29T19:49:35.859Z,57.72
2023-01-29T19:52:50.638Z,57.28
2023-01-29T19:55:59.885Z,59.21
2023-01-29T19:59:05.140Z,58.66
2023-01-29T20:02:10.402Z,58.30
2023-01-29T20:05:17.301Z,58.16
2023-01-29T20:08:25.078Z,58.06
2023-01-29T20:11:28.856Z,58.20
2023-01-29T20:14:32.981Z,58.44
2023-01-29T20:17:36.605Z,58.14
2023-01-29T20:20:43.268Z,58.22
2023-01-29T20:23:46.873Z,58.03
2023-01-29T20:26:51.495Z,58.38
2023-01-29T20:29:55.149Z,58.77
2023-01-29T20:32:59.088Z,58.64
2023-01-29T20:36:06.099Z,58.32
2023-01-29T20:39:10.149Z,58.89
2023-01-29T20:42:13.955Z,58.91
2023-01-29T20:45:18.019Z,58.57
2023-01-29T20:48:21.761Z,58.34
2023-01-29T20:51:27.254Z,58.58
2023-01-29T20:54:34.828Z,58.64
2023-01-29T20:57:40.111Z,58.21
2023-01-29T21:00:44.074Z,58.44
2023-01-29T21:03:49.560Z,58.59
2023-01-29T21:06:54.615Z,58.44
2023-01-29T21:09:58.879Z,58.58
2023-01-29T21:13:02.480Z,58.62
2023-01-29T21:16:09.640Z,59.31
2023-01-29T21:19:15.026Z,58.99
2023-01-29T21:22:20.403Z,59.33
2023-01-29T21:25:24.750Z,59.57
2023-01-29T21:28:28.678Z,60.04
2023-01-29T21:31:32.166Z,59.86
2023-01-29T21:34:36.891Z,59.81
2023-01-29T21:37:42.016Z,59.32
2023-01-29T21:40:46.051Z,59.21
2023-01-29T21:43:48.663Z,59.19
2023-01-29T21:46:53.273Z,59.15
2023-01-29T21:49:58.976Z,59.01
2023-01-29T21:53:04.432Z,58.71
2023-01-29T21:56:08.268Z,58.53
2023-01-29T21:59:12.713Z,58.93
2023-01-29T22:02:16.844Z,59.00
2023-01-29T22:05:21.125Z,58.85
2023-01-29T22:08:26.235Z,58.49
2023-01-29T22:11:30.215Z,58.25
2023-01-29T22:14:33.775Z,58.21
2023-01-29T22:17:41.200Z,58.61
2023-01-29T22:20:44.739Z,59.29
2023-01-29T22:23:51.221Z,59.01
2023-01-29T22:26:54.639Z,59.01
2023-01-29T22:29:58.527Z,58.89
2023-01-29T22:33:02.161Z,58.59
2023-01-29T22:36:07.011Z,58.38
2023-01-29T22:39:12.366Z,58.33
2023-01-29T22:42:16.406Z,58.43
2023-01-29T22:45:19.917Z,59.42
2023-01-29T22:48:26.989Z,59.09
2023-01-29T22:51:30.807Z,58.40
2023-01-29T22:54:38.720Z,58.59
2023-01-29T22:57:42.548Z,59.42
2023-01-29T23:00:51.365Z,59.27
2023-01-29T23:03:56.547Z,59.00
2023-01-29T23:07:01.349Z,58.86
2023-01-29T23:10:07.320Z,58.83
2023-01-29T23:13:11.629Z,58.33
2023-01-29T23:16:16.411Z,58.72
2023-01-29T23:19:21.975Z,58.75
2023-01-29T23:22:26.138Z,58.86
2023-01-29T23:25:46.402Z,58.63
2023-01-29T23:28:49.924Z,58.20
2023-01-29T23:31:53.863Z,58.29
2023-01-29T23:34:57.342Z,58.15
2023-01-29T23:38:01.558Z,58.34
2023-01-29T23:41:07.048Z,58.51
2023-01-29T23:44:11.295Z,57.77
2023-01-29T23:47:14.681Z,57.83
2023-01-29T23:50:19.191Z,57.89
2023-01-29T23:53:23.323Z,58.00
2023-01-29T23:56:29.552Z,57.76
2023-01-29T23:59:51.663Z,58.21
